createdAt,value
2023-10-23T00:01:22.660Z,1.33
2023-10-23T00:03:50.372Z,1.70
2023-10-23T00:06:17.575Z,1.60
2023-10-23T00:08:44.432Z,1.35
2023-10-23T00:11:22.387Z,1.40
2023-10-23T00:13:49.509Z,1.38
2023-10-23T00:16:16.278Z,1.48
2023-10-23T00:18:43.259Z,1.67
2023-10-23T00:21:10.234Z,1.50
2023-10-23T00:23:37.067Z,1.67
2023-10-23T00:26:03.944Z,1.50
2023-10-23T00:28:30.742Z,1.40
2023-10-23T00:30:58.336Z,1.40
2023-10-23T00:33:27.438Z,1.30
2023-10-23T00:35:54.987Z,1.58
2023-10-23T00:38:23.460Z,1.60
2023-10-23T00:40:50.348Z,1.60
2023-10-23T00:43:23.467Z,1.60
2023-10-23T00:45:54.127Z,1.60
2023-10-23T00:48:23.187Z,1.83
2023-10-23T00:50:51.832Z,1.57
2023-10-23T00:53:20.290Z,1.38
2023-10-23T00:55:47.672Z,1.67
2023-10-23T00:58:16.193Z,1.75
2023-10-23T01:00:45.535Z,1.42
2023-10-23T01:03:13.185Z,1.70
2023-10-23T01:05:40.216Z,1.70
2023-10-23T01:08:07.496Z,1.88
2023-10-23T01:10:34.846Z,1.70
2023-10-23T01:13:05.870Z,1.58
2023-10-23T01:15:32.896Z,1.55
2023-10-23T01:18:01.214Z,1.55
2023-10-23T01:20:29.532Z,1.80
2023-10-23T01:23:00.896Z,1.90
2023-10-23T01:25:29.570Z,1.73
2023-10-23T01:27:56.507Z,1.85
2023-10-23T01:30:23.601Z,1.38
2023-10-23T01:32:50.728Z,1.70
2023-10-23T01:35:17.779Z,1.92
2023-10-23T01:37:46.278Z,1.63
2023-10-23T01:40:13.315Z,1.50
2023-10-23T01:42:40.952Z,1.65
2023-10-23T01:45:08.807Z,1.67
2023-10-23T01:47:36.923Z,1.67
2023-10-23T01:50:03.875Z,1.88
2023-10-23T01:52:30.628Z,1.30
2023-10-23T01:54:59.537Z,1.65
2023-10-23T01:57:26.406Z,1.63
2023-10-23T01:59:53.816Z,1.70
2023-10-23T02:02:20.545Z,1.92
2023-10-23T02:04:47.499Z,1.50
2023-10-23T02:07:14.509Z,1.67
2023-10-23T02:09:41.449Z,1.85
2023-10-23T02:12:08.508Z,1.98
2023-10-23T02:14:35.308Z,1.58
2023-10-23T02:17:02.235Z,1.63
2023-10-23T02:19:31.480Z,1.50
2023-10-23T02:21:58.533Z,1.80
2023-10-23T02:24:25.431Z,2.00
2023-10-23T02:26:52.875Z,1.60
2023-10-23T02:29:19.649Z,1.52
2023-10-23T02:31:46.522Z,1.50
2023-10-23T02:34:13.384Z,1.67
2023-10-23T02:36:40.371Z,1.58
2023-10-23T02:39:07.518Z,1.42
2023-10-23T02:41:34.344Z,1.42
2023-10-23T02:44:01.331Z,1.33
2023-10-23T02:46:28.291Z,1.40
2023-10-23T02:48:55.306Z,1.67
2023-10-23T02:51:22.148Z,1.67
2023-10-23T02:53:48.999Z,1.60
2023-10-23T02:56:15.928Z,1.40
2023-10-23T02:58:42.785Z,1.50
2023-10-23T03:01:16.728Z,1.42
2023-10-23T03:03:45.097Z,1.50
2023-10-23T03:06:12.154Z,1.50
2023-10-23T03:08:39.077Z,1.27
2023-10-23T03:11:06.465Z,1.30
2023-10-23T03:13:34.020Z,1.52
2023-10-23T03:16:01.143Z,1.40
2023-10-23T03:18:28.302Z,1.40
2023-10-23T03:21:00.448Z,1.45
2023-10-23T03:23:29.516Z,1.70
2023-10-23T03:25:57.465Z,1.73
2023-10-23T03:28:24.732Z,1.75
2023-10-23T03:30:51.607Z,1.75
2023-10-23T03:33:18.607Z,2.22
2023-10-23T03:35:45.955Z,2.05
2023-10-23T03:38:14.085Z,1.50
2023-10-23T03:40:40.866Z,1.98
2023-10-23T03:43:07.868Z,1.70
2023-10-23T03:45:38.711Z,1.60
2023-10-23T03:48:06.118Z,1.80
2023-10-23T03:50:37.233Z,2.00
2023-10-23T03:53:04.216Z,1.77
2023-10-23T03:55:31.009Z,1.60
2023-10-23T03:57:57.825Z,1.73
2023-10-23T04:00:24.649Z,2.13
2023-10-23T04:02:53.447Z,1.58
2023-10-23T04:05:20.354Z,2.08
2023-10-23T04:07:47.273Z,1.90
2023-10-23T04:10:16.891Z,1.90
2023-10-23T04:12:43.711Z,1.88
2023-10-23T04:15:10.904Z,1.90
2023-10-23T04:17:37.656Z,1.80
2023-10-23T04:20:05.629Z,1.90
2023-10-23T04:22:32.676Z,1.83
2023-10-23T04:24:59.483Z,2.20
2023-10-23T04:27:26.315Z,2.13
2023-10-23T04:29:53.099Z,2.33
2023-10-23T04:32:19.945Z,2.00
2023-10-23T04:34:46.733Z,1.83
2023-10-23T04:37:13.438Z,2.00
2023-10-23T04:39:40.492Z,2.00
2023-10-23T04:42:07.549Z,2.33
2023-10-23T04:44:35.303Z,1.98
2023-10-23T04:47:02.228Z,2.15
2023-10-23T04:49:29.424Z,2.00
2023-10-23T04:51:56.252Z,1.92
2023-10-23T04:54:23.107Z,1.85
2023-10-23T04:56:49.861Z,2.00
2023-10-23T04:59:16.743Z,1.70
2023-10-23T05:01:43.582Z,1.88
2023-10-23T05:04:10.591Z,1.90
2023-10-23T05:06:37.695Z,1.77
2023-10-23T05:09:05.443Z,1.50
2023-10-23T05:11:33.890Z,1.80
2023-10-23T05:14:00.663Z,2.15
2023-10-23T05:16:27.600Z,2.25
2023-10-23T05:18:54.588Z,2.83
2023-10-23T05:21:21.413Z,2.95
2023-10-23T05:23:48.171Z,3.00
2023-10-23T05:26:16.257Z,3.17
2023-10-23T05:28:43.244Z,3.58
2023-10-23T05:31:10.911Z,3.15
2023-10-23T05:33:38.564Z,3.58
2023-10-23T05:36:06.996Z,3.58
2023-10-23T05:38:34.075Z,3.10
2023-10-23T05:41:02.142Z,3.00
2023-10-23T05:43:29.443Z,3.63
2023-10-23T05:45:56.970Z,3.20
2023-10-23T05:48:24.510Z,3.25
2023-10-23T05:51:06.136Z,3.30
2023-10-23T05:53:33.595Z,2.78
2023-10-23T05:56:07.150Z,3.22
2023-10-23T05:58:35.217Z,3.40
2023-10-23T06:01:09.730Z,3.58
2023-10-23T06:03:37.512Z,3.25
2023-10-23T06:06:05.455Z,3.97
2023-10-23T06:08:32.365Z,3.80
2023-10-23T06:10:59.174Z,3.67
2023-10-23T06:13:26.075Z,3.30
2023-10-23T06:15:53.394Z,3.53
2023-10-23T06:18:21.137Z,2.38
2023-10-23T06:20:48.025Z,3.08
2023-10-23T06:23:15.033Z,2.10
2023-10-23T06:25:41.870Z,1.98
2023-10-23T06:28:08.782Z,2.30
2023-10-23T06:30:38.693Z,2.55
2023-10-23T06:35:32.523Z,2.58
2023-10-23T06:37:59.385Z,2.53
2023-10-23T06:40:26.347Z,2.50
2023-10-23T06:42:53.075Z,1.92
2023-10-23T06:45:19.857Z,2.17
2023-10-23T06:47:50.662Z,2.67
2023-10-23T06:50:18.378Z,1.90
2023-10-23T06:52:46.190Z,2.50
2023-10-23T06:55:13.841Z,2.47
2023-10-23T06:57:41.150Z,2.33
2023-10-23T07:00:08.830Z,2.35
2023-10-23T07:02:35.750Z,2.50
2023-10-23T07:05:02.922Z,2.30
2023-10-23T07:07:30.696Z,2.50
2023-10-23T07:10:01.627Z,2.08
2023-10-23T07:12:28.693Z,2.17
2023-10-23T07:14:55.520Z,2.40
2023-10-23T07:17:22.448Z,2.90
2023-10-23T07:19:49.293Z,2.88
2023-10-23T07:22:16.344Z,3.28
2023-10-23T07:24:43.293Z,2.80
2023-10-23T07:27:13.441Z,3.00
2023-10-23T07:29:40.577Z,2.88
2023-10-23T07:32:07.979Z,2.90
2023-10-23T07:34:34.967Z,2.42
2023-10-23T07:37:02.255Z,2.40
2023-10-23T07:39:29.099Z,2.25
2023-10-23T07:41:55.871Z,2.72
2023-10-23T07:44:22.955Z,2.33
2023-10-23T07:46:49.953Z,2.97
2023-10-23T07:49:17.705Z,2.40
2023-10-23T07:51:45.955Z,2.40
2023-10-23T07:54:12.836Z,2.33
2023-10-23T07:56:39.600Z,2.28
2023-10-23T07:59:07.955Z,2.50
2023-10-23T08:01:35.328Z,2.83
2023-10-23T08:04:02.264Z,2.10
2023-10-23T08:06:29.215Z,2.60
2023-10-23T08:08:56.030Z,2.75
2023-10-23T08:11:22.796Z,3.10
2023-10-23T08:13:49.869Z,2.47
2023-10-23T08:16:16.773Z,2.40
2023-10-23T08:18:44.035Z,2.40
2023-10-23T08:21:16.462Z,2.47
2023-10-23T08:23:45.897Z,2.58
2023-10-23T08:26:13.713Z,2.47
2023-10-23T08:31:20.632Z,2.78
2023-10-23T08:33:57.606Z,2.53
2023-10-23T08:36:24.595Z,3.08
2023-10-23T08:38:51.549Z,3.15
2023-10-23T08:41:18.573Z,3.38
2023-10-23T08:43:45.570Z,3.22
2023-10-23T08:46:12.419Z,3.50
2023-10-23T08:48:39.604Z,3.97
2023-10-23T08:51:08.558Z,3.63
2023-10-23T08:53:51.992Z,3.28
2023-10-23T08:56:26.841Z,3.30
2023-10-23T08:59:00.432Z,3.45
2023-10-23T09:01:28.752Z,3.20
2023-10-23T09:04:03.311Z,3.80
2023-10-23T09:06:33.450Z,3.25
2023-10-23T09:09:01.298Z,3.22
2023-10-23T09:11:48.574Z,2.90
2023-10-23T09:14:27.323Z,3.35
2023-10-23T09:16:56.925Z,3.20
2023-10-23T09:19:38.801Z,3.15
2023-10-23T09:22:10.008Z,3.50
2023-10-23T09:24:38.640Z,4.32
2023-10-23T09:27:05.826Z,5.57
2023-10-23T09:29:34.125Z,5.25
2023-10-23T09:32:01.251Z,6.50
2023-10-23T09:34:30.412Z,6.45
2023-10-23T09:36:57.416Z,2.92
2023-10-23T09:39:24.627Z,3.60
2023-10-23T09:41:52.502Z,2.60
2023-10-23T09:44:19.314Z,2.45
2023-10-23T09:46:49.427Z,2.33
2023-10-23T09:49:17.855Z,3.00
2023-10-23T09:51:51.209Z,2.72
2023-10-23T09:54:22.601Z,2.63
2023-10-23T09:56:53.251Z,3.08
2023-10-23T09:59:26.349Z,2.90
2023-10-23T10:01:58.432Z,3.00
2023-10-23T10:04:51.761Z,3.13
2023-10-23T10:07:28.347Z,2.40
2023-10-23T10:09:56.298Z,3.13
2023-10-23T10:12:24.841Z,2.92
2023-10-23T10:14:54.395Z,2.72
2023-10-23T10:17:21.772Z,3.20
2023-10-23T10:19:50.511Z,2.63
2023-10-23T10:22:37.204Z,2.88
2023-10-23T10:25:09.150Z,3.13
2023-10-23T10:27:36.363Z,3.13
2023-10-23T10:30:09.286Z,2.92
2023-10-23T10:34:25.025Z,2.88
2023-10-23T10:35:41.555Z,2.95
2023-10-23T10:38:14.244Z,2.70
2023-10-23T10:41:01.189Z,3.30
2023-10-23T10:43:34.161Z,3.40
2023-10-23T10:46:15.518Z,3.00
2023-10-23T10:48:47.760Z,3.05
2023-10-23T10:51:20.374Z,3.60
2023-10-23T10:53:48.079Z,4.20
2023-10-23T10:56:15.351Z,3.40
2023-10-23T10:58:45.432Z,3.90
2023-10-23T11:01:12.736Z,4.13
2023-10-23T11:03:39.774Z,4.05
2023-10-23T11:06:07.224Z,4.00
2023-10-23T11:08:35.260Z,3.25
2023-10-23T11:11:03.531Z,3.30
2023-10-23T11:13:30.514Z,3.25
2023-10-23T11:15:57.375Z,3.35
2023-10-23T11:18:24.211Z,3.30
2023-10-23T11:20:51.119Z,3.05
2023-10-23T11:23:23.418Z,2.70
2023-10-23T11:25:51.620Z,3.22
2023-10-23T11:28:19.030Z,3.25
2023-10-23T11:30:51.406Z,3.40
2023-10-23T11:33:20.357Z,3.00
2023-10-23T11:35:47.202Z,3.60
2023-10-23T11:38:19.630Z,3.85
2023-10-23T11:40:47.158Z,2.70
2023-10-23T11:43:17.119Z,3.22
2023-10-23T11:45:46.807Z,3.22
2023-10-23T11:48:14.073Z,2.95
2023-10-23T11:50:44.123Z,3.00
2023-10-23T11:53:10.967Z,2.80
2023-10-23T11:55:39.109Z,2.50
2023-10-23T11:58:06.154Z,2.85
2023-10-23T12:00:36.745Z,3.42
2023-10-23T12:03:05.802Z,3.17
2023-10-23T12:05:32.961Z,2.55
2023-10-23T12:07:59.731Z,2.30
2023-10-23T12:10:27.668Z,2.70
2023-10-23T12:12:56.054Z,3.20
2023-10-23T12:15:28.636Z,2.33
2023-10-23T12:18:03.696Z,1.10
2023-10-23T12:20:31.080Z,1.15
2023-10-23T12:22:57.862Z,1.42
2023-10-23T12:25:24.743Z,1.20
2023-10-23T12:27:52.289Z,1.00
2023-10-23T12:30:24.169Z,1.00
2023-10-23T12:33:11.623Z,2.78
2023-10-23T12:35:41.262Z,2.00
2023-10-23T12:38:08.238Z,0.82
2023-10-23T12:40:37.225Z,1.27
2023-10-23T12:43:05.380Z,1.17
2023-10-23T12:45:32.786Z,0.98
2023-10-23T12:47:59.928Z,1.08
2023-10-23T12:50:26.744Z,1.10
2023-10-23T12:52:53.578Z,1.10
2023-10-23T12:55:20.407Z,0.90
